sensor_id;sensor_type;location;lat;lon;timestamp;temperature;humidity
32366;DHT22;18837;46.832;16.838;2022-08-19T00:00:21;27.80;56.10
32366;DHT22;18837;46.832;16.838;2022-08-19T00:02:47;27.80;56.20
32366;DHT22;18837;46.832;16.838;2022-08-19T00:05:14;27.80;56.30
32366;DHT22;18837;46.832;16.838;2022-08-19T00:07:41;27.80;56.20
32366;DHT22;18837;46.832;16.838;2022-08-19T00:10:15;27.80;56.20
32366;DHT22;18837;46.832;16.838;2022-08-19T00:12:41;27.80;56.30
32366;DHT22;18837;46.832;16.838;2022-08-19T00:15:10;27.80;56.20
32366;DHT22;18837;46.832;16.838;2022-08-19T00:17:42;27.80;56.20
32366;DHT22;18837;46.832;16.838;2022-08-19T00:20:11;27.80;56.20
32366;DHT22;18837;46.832;16.838;2022-08-19T00:22:38;27.80;56.20
32366;DHT22;18837;46.832;16.838;2022-08-19T00:25:07;27.80;56.10
32366;DHT22;18837;46.832;16.838;2022-08-19T00:27:33;27.70;56.20
32366;DHT22;18837;46.832;16.838;2022-08-19T00:29:59;27.70;56.20
32366;DHT22;18837;46.832;16.838;2022-08-19T00:32:25;27.70;56.30
32366;DHT22;18837;46.832;16.838;2022-08-19T00:34:51;27.70;56.20
32366;DHT22;18837;46.832;16.838;2022-08-19T00:37:19;27.70;56.30
32366;DHT22;18837;46.832;16.838;2022-08-19T00:39:48;27.70;56.30
32366;DHT22;18837;46.832;16.838;2022-08-19T00:42:15;27.70;56.40
32366;DHT22;18837;46.832;16.838;2022-08-19T00:44:41;27.70;56.50
32366;DHT22;18837;46.832;16.838;2022-08-19T00:47:08;27.70;56.40
32366;DHT22;18837;46.832;16.838;2022-08-19T00:49:37;27.60;56.30
32366;DHT22;18837;46.832;16.838;2022-08-19T00:52:13;27.60;56.20
32366;DHT22;18837;46.832;16.838;2022-08-19T00:54:40;27.60;56.50
32366;DHT22;18837;46.832;16.838;2022-08-19T00:57:09;27.60;56.40
32366;DHT22;18837;46.832;16.838;2022-08-19T00:59:39;27.60;56.50
32366;DHT22;18837;46.832;16.838;2022-08-19T01:02:08;27.60;56.50
32366;DHT22;18837;46.832;16.838;2022-08-19T01:04:34;27.50;56.50
32366;DHT22;18837;46.832;16.838;2022-08-19T01:07:01;27.50;56.70
32366;DHT22;18837;46.832;16.838;2022-08-19T01:09:27;27.50;56.60
32366;DHT22;18837;46.832;16.838;2022-08-19T01:11:52;27.50;56.60
32366;DHT22;18837;46.832;16.838;2022-08-19T01:14:18;27.50;56.60
32366;DHT22;18837;46.832;16.838;2022-08-19T01:16:52;27.50;56.40
32366;DHT22;18837;46.832;16.838;2022-08-19T01:19:34;27.40;56.50
32366;DHT22;18837;46.832;16.838;2022-08-19T01:24:29;27.40;56.70
32366;DHT22;18837;46.832;16.838;2022-08-19T01:26:56;27.40;56.70
32366;DHT22;18837;46.832;16.838;2022-08-19T01:29:22;27.40;56.80
32366;DHT22;18837;46.832;16.838;2022-08-19T01:31:48;27.40;56.60
32366;DHT22;18837;46.832;16.838;2022-08-19T01:34:15;27.40;56.80
32366;DHT22;18837;46.832;16.838;2022-08-19T01:36:44;27.40;56.80
32366;DHT22;18837;46.832;16.838;2022-08-19T01:39:19;27.40;56.70
32366;DHT22;18837;46.832;16.838;2022-08-19T01:41:46;27.30;56.80
32366;DHT22;18837;46.832;16.838;2022-08-19T01:44:12;27.30;56.70
32366;DHT22;18837;46.832;16.838;2022-08-19T01:46:38;27.30;56.90
32366;DHT22;18837;46.832;16.838;2022-08-19T01:49:05;27.20;56.80
32366;DHT22;18837;46.832;16.838;2022-08-19T01:51:32;27.30;56.90
32366;DHT22;18837;46.832;16.838;2022-08-19T01:53:58;27.20;56.90
32366;DHT22;18837;46.832;16.838;2022-08-19T01:56:24;27.30;57.00
32366;DHT22;18837;46.832;16.838;2022-08-19T01:58:54;27.30;57.00
32366;DHT22;18837;46.832;16.838;2022-08-19T02:01:21;27.20;57.00
32366;DHT22;18837;46.832;16.838;2022-08-19T02:03:46;27.20;57.10
32366;DHT22;18837;46.832;16.838;2022-08-19T02:06:13;27.10;57.10
32366;DHT22;18837;46.832;16.838;2022-08-19T02:08:39;27.10;56.90
32366;DHT22;18837;46.832;16.838;2022-08-19T02:11:06;27.10;57.20
32366;DHT22;18837;46.832;16.838;2022-08-19T02:13:32;27.10;57.20
32366;DHT22;18837;46.832;16.838;2022-08-19T02:15:58;27.10;57.30
32366;DHT22;18837;46.832;16.838;2022-08-19T02:18:24;27.00;57.30
32366;DHT22;18837;46.832;16.838;2022-08-19T02:20:52;27.00;57.50
32366;DHT22;18837;46.832;16.838;2022-08-19T02:23:17;27.00;58.20
32366;DHT22;18837;46.832;16.838;2022-08-19T02:25:48;27.00;57.40
32366;DHT22;18837;46.832;16.838;2022-08-19T02:28:14;26.90;57.50
32366;DHT22;18837;46.832;16.838;2022-08-19T02:30:40;26.90;57.60
32366;DHT22;18837;46.832;16.838;2022-08-19T02:33:06;26.90;57.60
32366;DHT22;18837;46.832;16.838;2022-08-19T02:35:32;26.90;57.60
32366;DHT22;18837;46.832;16.838;2022-08-19T02:37:57;26.80;57.80
32366;DHT22;18837;46.832;16.838;2022-08-19T02:40:49;26.80;57.80
32366;DHT22;18837;46.832;16.838;2022-08-19T02:43:17;26.80;57.70
32366;DHT22;18837;46.832;16.838;2022-08-19T02:45:42;26.80;57.80
32366;DHT22;18837;46.832;16.838;2022-08-19T02:48:08;26.80;57.70
32366;DHT22;18837;46.832;16.838;2022-08-19T02:50:37;26.80;57.60
32366;DHT22;18837;46.832;16.838;2022-08-19T02:53:03;26.80;57.60
32366;DHT22;18837;46.832;16.838;2022-08-19T02:55:29;26.80;57.70
32366;DHT22;18837;46.832;16.838;2022-08-19T02:57:54;26.70;57.70
32366;DHT22;18837;46.832;16.838;2022-08-19T03:00:20;26.80;57.70
32366;DHT22;18837;46.832;16.838;2022-08-19T03:02:46;26.80;57.60
32366;DHT22;18837;46.832;16.838;2022-08-19T03:05:12;26.80;57.70
32366;DHT22;18837;46.832;16.838;2022-08-19T03:07:38;26.80;57.70
32366;DHT22;18837;46.832;16.838;2022-08-19T03:10:05;26.80;57.70
32366;DHT22;18837;46.832;16.838;2022-08-19T03:12:31;26.80;57.70
32366;DHT22;18837;46.832;16.838;2022-08-19T03:14:56;26.70;57.80
32366;DHT22;18837;46.832;16.838;2022-08-19T03:17:22;26.70;57.80
32366;DHT22;18837;46.832;16.838;2022-08-19T03:19:48;26.70;57.50
32366;DHT22;18837;46.832;16.838;2022-08-19T03:22:14;26.70;57.80
32366;DHT22;18837;46.832;16.838;2022-08-19T03:24:40;26.70;57.70
32366;DHT22;18837;46.832;16.838;2022-08-19T03:27:05;26.70;58.00
32366;DHT22;18837;46.832;16.838;2022-08-19T03:29:32;26.70;57.80
32366;DHT22;18837;46.832;16.838;2022-08-19T03:32:03;26.70;57.80
32366;DHT22;18837;46.832;16.838;2022-08-19T03:34:31;26.70;57.70
32366;DHT22;18837;46.832;16.838;2022-08-19T03:37:05;26.70;57.80
32366;DHT22;18837;46.832;16.838;2022-08-19T03:39:30;26.70;58.00
32366;DHT22;18837;46.832;16.838;2022-08-19T03:41:56;26.60;57.90
32366;DHT22;18837;46.832;16.838;2022-08-19T03:44:23;26.60;57.70
32366;DHT22;18837;46.832;16.838;2022-08-19T03:46:55;26.60;58.10
32366;DHT22;18837;46.832;16.838;2022-08-19T03:49:23;26.60;57.90
32366;DHT22;18837;46.832;16.838;2022-08-19T03:51:49;26.60;57.90
32366;DHT22;18837;46.832;16.838;2022-08-19T03:54:20;26.60;58.20
32366;DHT22;18837;46.832;16.838;2022-08-19T03:56:48;26.60;57.90
32366;DHT22;18837;46.832;16.838;2022-08-19T03:59:18;26.60;58.10
32366;DHT22;18837;46.832;16.838;2022-08-19T04:01:45;26.60;58.10
32366;DHT22;18837;46.832;16.838;2022-08-19T04:04:11;26.60;58.00
32366;DHT22;18837;46.832;16.838;2022-08-19T04:06:38;26.60;58.10
32366;DHT22;18837;46.832;16.838;2022-08-19T04:09:07;26.60;58.10
32366;DHT22;18837;46.832;16.838;2022-08-19T04:11:42;26.60;58.10
32366;DHT22;18837;46.832;16.838;2022-08-19T04:14:11;26.60;57.90
32366;DHT22;18837;46.832;16.838;2022-08-19T04:16:37;26.50;58.00
32366;DHT22;18837;46.832;16.838;2022-08-19T04:19:04;26.60;58.20
32366;DHT22;18837;46.832;16.838;2022-08-19T04:21:32;26.60;58.30
32366;DHT22;18837;46.832;16.838;2022-08-19T04:23:58;26.50;58.10
32366;DHT22;18837;46.832;16.838;2022-08-19T04:26:30;26.50;58.20
32366;DHT22;18837;46.832;16.838;2022-08-19T04:29:02;26.50;58.20
32366;DHT22;18837;46.832;16.838;2022-08-19T04:31:30;26.50;58.40
32366;DHT22;18837;46.832;16.838;2022-08-19T04:33:59;26.50;58.50
32366;DHT22;18837;46.832;16.838;2022-08-19T04:36:32;26.50;58.50
32366;DHT22;18837;46.832;16.838;2022-08-19T04:39:02;26.50;58.50
32366;DHT22;18837;46.832;16.838;2022-08-19T04:41:28;26.50;58.60
32366;DHT22;18837;46.832;16.838;2022-08-19T04:44:13;26.40;58.50
32366;DHT22;18837;46.832;16.838;2022-08-19T04:46:39;26.40;58.60
32366;DHT22;18837;46.832;16.838;2022-08-19T04:49:05;26.40;58.50
32366;DHT22;18837;46.832;16.838;2022-08-19T04:51:32;26.40;58.50
32366;DHT22;18837;46.832;16.838;2022-08-19T04:53:58;26.30;58.60
32366;DHT22;18837;46.832;16.838;2022-08-19T04:56:25;26.30;58.90
32366;DHT22;18837;46.832;16.838;2022-08-19T04:58:53;26.30;58.80
32366;DHT22;18837;46.832;16.838;2022-08-19T05:01:23;26.30;58.80
32366;DHT22;18837;46.832;16.838;2022-08-19T05:03:49;26.30;58.90
32366;DHT22;18837;46.832;16.838;2022-08-19T05:06:18;26.30;58.90
32366;DHT22;18837;46.832;16.838;2022-08-19T05:08:44;26.30;59.30
32366;DHT22;18837;46.832;16.838;2022-08-19T05:11:13;26.30;58.80
32366;DHT22;18837;46.832;16.838;2022-08-19T05:13:39;26.30;58.60
32366;DHT22;18837;46.832;16.838;2022-08-19T05:16:05;26.40;58.80
32366;DHT22;18837;46.832;16.838;2022-08-19T05:18:31;26.40;58.70
32366;DHT22;18837;46.832;16.838;2022-08-19T05:21:18;26.40;58.50
32366;DHT22;18837;46.832;16.838;2022-08-19T05:24:04;26.40;58.60
32366;DHT22;18837;46.832;16.838;2022-08-19T05:26:36;26.40;58.60
32366;DHT22;18837;46.832;16.838;2022-08-19T05:29:01;26.40;58.50
32366;DHT22;18837;46.832;16.838;2022-08-19T05:31:27;26.40;58.60
32366;DHT22;18837;46.832;16.838;2022-08-19T05:33:53;26.40;58.70
32366;DHT22;18837;46.832;16.838;2022-08-19T05:36:22;26.40;58.60
32366;DHT22;18837;46.832;16.838;2022-08-19T05:38:48;26.50;58.60
32366;DHT22;18837;46.832;16.838;2022-08-19T05:41:15;26.50;58.60
32366;DHT22;18837;46.832;16.838;2022-08-19T05:43:42;26.50;58.60
32366;DHT22;18837;46.832;16.838;2022-08-19T05:46:08;26.50;58.60
32366;DHT22;18837;46.832;16.838;2022-08-19T05:48:41;26.50;58.60
32366;DHT22;18837;46.832;16.838;2022-08-19T05:51:07;26.50;58.50
32366;DHT22;18837;46.832;16.838;2022-08-19T05:53:34;26.50;58.40
32366;DHT22;18837;46.832;16.838;2022-08-19T05:56:07;26.50;58.40
32366;DHT22;18837;46.832;16.838;2022-08-19T05:58:34;26.50;58.40
32366;DHT22;18837;46.832;16.838;2022-08-19T06:01:00;26.60;58.40
32366;DHT22;18837;46.832;16.838;2022-08-19T06:03:30;26.50;58.20
32366;DHT22;18837;46.832;16.838;2022-08-19T06:05:57;26.60;58.50
32366;DHT22;18837;46.832;16.838;2022-08-19T06:08:25;26.60;58.50
32366;DHT22;18837;46.832;16.838;2022-08-19T06:14:12;26.60;58.40
32366;DHT22;18837;46.832;16.838;2022-08-19T06:16:40;26.60;58.50
32366;DHT22;18837;46.832;16.838;2022-08-19T06:19:09;26.50;58.50
32366;DHT22;18837;46.832;16.838;2022-08-19T06:21:37;26.50;58.40
32366;DHT22;18837;46.832;16.838;2022-08-19T06:24:06;26.50;58.20
32366;DHT22;18837;46.832;16.838;2022-08-19T06:26:34;26.50;58.10
32366;DHT22;18837;46.832;16.838;2022-08-19T06:29:00;26.50;58.00
32366;DHT22;18837;46.832;16.838;2022-08-19T06:31:28;26.50;58.10
32366;DHT22;18837;46.832;16.838;2022-08-19T06:33:54;26.50;58.00
32366;DHT22;18837;46.832;16.838;2022-08-19T06:36:26;26.50;58.20
32366;DHT22;18837;46.832;16.838;2022-08-19T06:39:07;26.50;58.30
32366;DHT22;18837;46.832;16.838;2022-08-19T06:41:40;26.50;58.30
32366;DHT22;18837;46.832;16.838;2022-08-19T06:44:07;26.40;58.30
32366;DHT22;18837;46.832;16.838;2022-08-19T06:46:33;26.40;58.60
32366;DHT22;18837;46.832;16.838;2022-08-19T06:49:00;26.50;58.60
32366;DHT22;18837;46.832;16.838;2022-08-19T06:51:26;26.50;58.60
32366;DHT22;18837;46.832;16.838;2022-08-19T06:53:53;26.40;58.50
32366;DHT22;18837;46.832;16.838;2022-08-19T06:56:22;26.50;58.60
32366;DHT22;18837;46.832;16.838;2022-08-19T06:58:50;26.40;58.50
32366;DHT22;18837;46.832;16.838;2022-08-19T07:01:19;26.50;58.70
32366;DHT22;18837;46.832;16.838;2022-08-19T07:03:45;26.50;58.70
32366;DHT22;18837;46.832;16.838;2022-08-19T07:06:13;26.50;58.80
32366;DHT22;18837;46.832;16.838;2022-08-19T07:08:41;26.60;58.60
32366;DHT22;18837;46.832;16.838;2022-08-19T07:11:09;26.70;58.50
32366;DHT22;18837;46.832;16.838;2022-08-19T07:13:37;26.70;58.30
32366;DHT22;18837;46.832;16.838;2022-08-19T07:16:05;26.80;58.20
32366;DHT22;18837;46.832;16.838;2022-08-19T07:18:30;26.80;58.20
32366;DHT22;18837;46.832;16.838;2022-08-19T07:21:26;26.90;58.20
32366;DHT22;18837;46.832;16.838;2022-08-19T07:23:54;26.90;58.10
32366;DHT22;18837;46.832;16.838;2022-08-19T07:26:35;27.00;58.10
32366;DHT22;18837;46.832;16.838;2022-08-19T07:29:04;27.00;58.00
32366;DHT22;18837;46.832;16.838;2022-08-19T07:31:30;27.00;58.10
32366;DHT22;18837;46.832;16.838;2022-08-19T07:33:57;27.10;58.10
32366;DHT22;18837;46.832;16.838;2022-08-19T07:36:26;27.10;58.10
32366;DHT22;18837;46.832;16.838;2022-08-19T07:39:00;27.10;58.00
32366;DHT22;18837;46.832;16.838;2022-08-19T07:41:28;27.20;58.10
32366;DHT22;18837;46.832;16.838;2022-08-19T07:43:58;27.10;57.80
32366;DHT22;18837;46.832;16.838;2022-08-19T07:46:27;27.20;58.20
32366;DHT22;18837;46.832;16.838;2022-08-19T07:48:53;27.20;58.80
32366;DHT22;18837;46.832;16.838;2022-08-19T07:51:21;27.20;58.00
32366;DHT22;18837;46.832;16.838;2022-08-19T07:53:51;27.20;58.00
32366;DHT22;18837;46.832;16.838;2022-08-19T07:56:19;27.30;58.00
32366;DHT22;18837;46.832;16.838;2022-08-19T07:58:47;27.30;58.10
32366;DHT22;18837;46.832;16.838;2022-08-19T08:01:22;27.30;58.00
32366;DHT22;18837;46.832;16.838;2022-08-19T08:03:51;27.40;58.00
32366;DHT22;18837;46.832;16.838;2022-08-19T08:06:36;27.40;58.10
32366;DHT22;18837;46.832;16.838;2022-08-19T08:09:27;27.40;58.10
32366;DHT22;18837;46.832;16.838;2022-08-19T08:11:57;27.40;57.90
32366;DHT22;18837;46.832;16.838;2022-08-19T08:14:35;27.40;58.00
32366;DHT22;18837;46.832;16.838;2022-08-19T08:17:02;27.50;57.80
32366;DHT22;18837;46.832;16.838;2022-08-19T08:19:29;27.50;58.10
32366;DHT22;18837;46.832;16.838;2022-08-19T08:21:58;27.50;57.90
32366;DHT22;18837;46.832;16.838;2022-08-19T08:24:25;27.50;58.00
32366;DHT22;18837;46.832;16.838;2022-08-19T08:26:51;27.50;57.90
32366;DHT22;18837;46.832;16.838;2022-08-19T08:29:19;27.60;58.00
32366;DHT22;18837;46.832;16.838;2022-08-19T08:31:46;27.60;57.90
32366;DHT22;18837;46.832;16.838;2022-08-19T08:34:13;27.60;58.00
32366;DHT22;18837;46.832;16.838;2022-08-19T08:36:41;27.70;57.70
32366;DHT22;18837;46.832;16.838;2022-08-19T08:39:16;27.70;57.80
32366;DHT22;18837;46.832;16.838;2022-08-19T08:44:23;27.70;57.70
32366;DHT22;18837;46.832;16.838;2022-08-19T08:46:56;27.70;57.90
32366;DHT22;18837;46.832;16.838;2022-08-19T08:52:07;27.80;58.00
32366;DHT22;18837;46.832;16.838;2022-08-19T08:54:44;27.80;57.90
32366;DHT22;18837;46.832;16.838;2022-08-19T08:57:15;27.80;57.90
32366;DHT22;18837;46.832;16.838;2022-08-19T08:59:46;27.80;57.90
32366;DHT22;18837;46.832;16.838;2022-08-19T09:02:17;27.80;57.90
32366;DHT22;18837;46.832;16.838;2022-08-19T09:04:43;27.80;58.00
32366;DHT22;18837;46.832;16.838;2022-08-19T09:09:45;27.90;57.80
32366;DHT22;18837;46.832;16.838;2022-08-19T09:14:58;27.80;57.90
32366;DHT22;18837;46.832;16.838;2022-08-19T09:17:28;27.80;57.80
32366;DHT22;18837;46.832;16.838;2022-08-19T09:22:37;27.80;57.90
32366;DHT22;18837;46.832;16.838;2022-08-19T09:25:05;27.70;58.00
32366;DHT22;18837;46.832;16.838;2022-08-19T09:27:31;27.70;58.00
32366;DHT22;18837;46.832;16.838;2022-08-19T09:29:58;27.70;58.20
32366;DHT22;18837;46.832;16.838;2022-08-19T09:32:24;27.60;58.00
32366;DHT22;18837;46.832;16.838;2022-08-19T09:34:52;27.50;58.40
32366;DHT22;18837;46.832;16.838;2022-08-19T09:37:20;27.50;58.70
32366;DHT22;18837;46.832;16.838;2022-08-19T09:39:47;27.40;59.00
32366;DHT22;18837;46.832;16.838;2022-08-19T09:42:13;27.30;58.70
32366;DHT22;18837;46.832;16.838;2022-08-19T09:44:40;27.20;58.80
32366;DHT22;18837;46.832;16.838;2022-08-19T09:47:07;27.20;58.90
32366;DHT22;18837;46.832;16.838;2022-08-19T09:49:33;27.20;59.10
32366;DHT22;18837;46.832;16.838;2022-08-19T09:52:00;27.30;59.20
32366;DHT22;18837;46.832;16.838;2022-08-19T09:54:27;27.30;59.00
32366;DHT22;18837;46.832;16.838;2022-08-19T09:56:53;27.30;59.20
32366;DHT22;18837;46.832;16.838;2022-08-19T09:59:19;27.30;59.00
32366;DHT22;18837;46.832;16.838;2022-08-19T10:01:45;27.30;59.00
32366;DHT22;18837;46.832;16.838;2022-08-19T10:04:11;27.30;59.10
32366;DHT22;18837;46.832;16.838;2022-08-19T10:06:38;27.30;59.00
32366;DHT22;18837;46.832;16.838;2022-08-19T10:09:09;27.30;59.80
32366;DHT22;18837;46.832;16.838;2022-08-19T10:11:36;27.30;59.20
32366;DHT22;18837;46.832;16.838;2022-08-19T10:14:03;27.40;59.30
32366;DHT22;18837;46.832;16.838;2022-08-19T10:16:31;27.40;59.40
32366;DHT22;18837;46.832;16.838;2022-08-19T10:18:57;27.40;59.30
32366;DHT22;18837;46.832;16.838;2022-08-19T10:21:27;27.50;59.50
32366;DHT22;18837;46.832;16.838;2022-08-19T10:23:56;27.50;59.60
32366;DHT22;18837;46.832;16.838;2022-08-19T10:26:31;27.50;59.60
32366;DHT22;18837;46.832;16.838;2022-08-19T10:28:57;27.60;59.80
32366;DHT22;18837;46.832;16.838;2022-08-19T10:31:28;27.60;59.60
32366;DHT22;18837;46.832;16.838;2022-08-19T10:33:55;27.70;59.80
32366;DHT22;18837;46.832;16.838;2022-08-19T10:36:33;27.80;59.90
32366;DHT22;18837;46.832;16.838;2022-08-19T10:39:03;27.80;59.80
32366;DHT22;18837;46.832;16.838;2022-08-19T10:41:34;27.90;59.80
32366;DHT22;18837;46.832;16.838;2022-08-19T10:44:02;28.00;59.70
32366;DHT22;18837;46.832;16.838;2022-08-19T10:46:29;28.00;59.60
32366;DHT22;18837;46.832;16.838;2022-08-19T10:48:59;28.10;59.70
32366;DHT22;18837;46.832;16.838;2022-08-19T10:51:25;28.10;59.60
32366;DHT22;18837;46.832;16.838;2022-08-19T10:54:09;28.20;59.60
32366;DHT22;18837;46.832;16.838;2022-08-19T10:56:35;28.30;59.40
32366;DHT22;18837;46.832;16.838;2022-08-19T10:59:25;28.30;59.20
32366;DHT22;18837;46.832;16.838;2022-08-19T11:02:08;28.30;59.20
32366;DHT22;18837;46.832;16.838;2022-08-19T11:04:58;28.30;59.00
32366;DHT22;18837;46.832;16.838;2022-08-19T11:07:23;28.40;59.10
32366;DHT22;18837;46.832;16.838;2022-08-19T11:09:50;28.30;58.90
32366;DHT22;18837;46.832;16.838;2022-08-19T11:12:16;28.40;59.10
32366;DHT22;18837;46.832;16.838;2022-08-19T11:14:42;28.30;58.80
32366;DHT22;18837;46.832;16.838;2022-08-19T11:17:08;28.30;58.90
32366;DHT22;18837;46.832;16.838;2022-08-19T11:19:39;28.30;59.00
32366;DHT22;18837;46.832;16.838;2022-08-19T11:22:08;28.30;59.00
32366;DHT22;18837;46.832;16.838;2022-08-19T11:24:35;28.20;59.10
32366;DHT22;18837;46.832;16.838;2022-08-19T11:27:07;28.20;59.00
32366;DHT22;18837;46.832;16.838;2022-08-19T11:29:35;28.20;59.00
32366;DHT22;18837;46.832;16.838;2022-08-19T11:32:05;28.10;59.10
32366;DHT22;18837;46.832;16.838;2022-08-19T11:34:32;28.10;58.90
32366;DHT22;18837;46.832;16.838;2022-08-19T11:37:04;28.10;59.00
32366;DHT22;18837;46.832;16.838;2022-08-19T11:39:46;28.00;59.10
32366;DHT22;18837;46.832;16.838;2022-08-19T11:42:12;28.00;59.00
32366;DHT22;18837;46.832;16.838;2022-08-19T11:44:56;27.90;58.90
32366;DHT22;18837;46.832;16.838;2022-08-19T11:47:22;27.90;59.10
32366;DHT22;18837;46.832;16.838;2022-08-19T11:49:48;27.80;59.10
32366;DHT22;18837;46.832;16.838;2022-08-19T11:52:14;27.70;59.20
32366;DHT22;18837;46.832;16.838;2022-08-19T11:54:46;27.70;59.30
32366;DHT22;18837;46.832;16.838;2022-08-19T11:57:14;27.60;59.40
32366;DHT22;18837;46.832;16.838;2022-08-19T11:59:47;27.50;59.70
32366;DHT22;18837;46.832;16.838;2022-08-19T12:02:13;27.50;59.90
32366;DHT22;18837;46.832;16.838;2022-08-19T12:04:40;27.50;59.90
32366;DHT22;18837;46.832;16.838;2022-08-19T12:07:06;27.40;59.90
32366;DHT22;18837;46.832;16.838;2022-08-19T12:09:32;27.40;60.00
32366;DHT22;18837;46.832;16.838;2022-08-19T12:12:00;27.30;60.50
32366;DHT22;18837;46.832;16.838;2022-08-19T12:14:28;27.30;60.80
32366;DHT22;18837;46.832;16.838;2022-08-19T12:16:56;27.20;61.50
32366;DHT22;18837;46.832;16.838;2022-08-19T12:19:21;27.10;61.40
32366;DHT22;18837;46.832;16.838;2022-08-19T12:21:48;27.10;61.60
32366;DHT22;18837;46.832;16.838;2022-08-19T12:24:14;27.10;61.60
32366;DHT22;18837;46.832;16.838;2022-08-19T12:26:40;27.00;61.60
32366;DHT22;18837;46.832;16.838;2022-08-19T12:29:10;27.00;61.50
32366;DHT22;18837;46.832;16.838;2022-08-19T12:31:36;27.00;61.90
32366;DHT22;18837;46.832;16.838;2022-08-19T12:34:02;27.00;62.20
32366;DHT22;18837;46.832;16.838;2022-08-19T12:36:28;27.00;62.00
32366;DHT22;18837;46.832;16.838;2022-08-19T12:38:53;27.00;61.80
32366;DHT22;18837;46.832;16.838;2022-08-19T12:41:20;27.00;61.80
32366;DHT22;18837;46.832;16.838;2022-08-19T12:43:47;27.10;61.60
32366;DHT22;18837;46.832;16.838;2022-08-19T12:46:27;27.10;61.70
32366;DHT22;18837;46.832;16.838;2022-08-19T12:49:05;27.20;61.70
32366;DHT22;18837;46.832;16.838;2022-08-19T12:51:30;27.30;61.50
32366;DHT22;18837;46.832;16.838;2022-08-19T12:53:57;27.50;61.60
32366;DHT22;18837;46.832;16.838;2022-08-19T12:56:23;27.50;61.40
32366;DHT22;18837;46.832;16.838;2022-08-19T12:58:49;27.60;61.50
32366;DHT22;18837;46.832;16.838;2022-08-19T13:01:16;27.70;61.40
32366;DHT22;18837;46.832;16.838;2022-08-19T13:03:44;27.80;61.20
32366;DHT22;18837;46.832;16.838;2022-08-19T13:06:10;27.80;61.10
32366;DHT22;18837;46.832;16.838;2022-08-19T13:08:36;27.90;61.10
32366;DHT22;18837;46.832;16.838;2022-08-19T13:11:16;27.90;61.00
32366;DHT22;18837;46.832;16.838;2022-08-19T13:13:45;27.90;61.00
32366;DHT22;18837;46.832;16.838;2022-08-19T13:16:12;27.90;61.10
32366;DHT22;18837;46.832;16.838;2022-08-19T13:18:39;28.00;61.10
32366;DHT22;18837;46.832;16.838;2022-08-19T13:21:13;28.00;60.90
32366;DHT22;18837;46.832;16.838;2022-08-19T13:23:39;28.00;61.00
32366;DHT22;18837;46.832;16.838;2022-08-19T13:26:07;28.00;61.00
32366;DHT22;18837;46.832;16.838;2022-08-19T13:28:34;28.00;60.90
32366;DHT22;18837;46.832;16.838;2022-08-19T13:31:21;28.00;60.80
32366;DHT22;18837;46.832;16.838;2022-08-19T13:34:05;28.00;61.20
32366;DHT22;18837;46.832;16.838;2022-08-19T13:36:32;28.10;60.60
32366;DHT22;18837;46.832;16.838;2022-08-19T13:38:58;28.20;60.70
32366;DHT22;18837;46.832;16.838;2022-08-19T13:41:25;28.20;60.80
32366;DHT22;18837;46.832;16.838;2022-08-19T13:43:50;28.30;60.30
32366;DHT22;18837;46.832;16.838;2022-08-19T13:46:16;28.40;60.50
32366;DHT22;18837;46.832;16.838;2022-08-19T13:48:42;28.50;60.20
32366;DHT22;18837;46.832;16.838;2022-08-19T13:51:09;28.50;60.00
32366;DHT22;18837;46.832;16.838;2022-08-19T13:53:37;28.60;59.90
32366;DHT22;18837;46.832;16.838;2022-08-19T13:56:09;28.50;59.70
32366;DHT22;18837;46.832;16.838;2022-08-19T13:58:36;28.60;59.90
32366;DHT22;18837;46.832;16.838;2022-08-19T14:01:03;28.70;59.60
32366;DHT22;18837;46.832;16.838;2022-08-19T14:03:30;28.70;59.50
32366;DHT22;18837;46.832;16.838;2022-08-19T14:05:56;28.80;59.40
32366;DHT22;18837;46.832;16.838;2022-08-19T14:08:22;28.80;59.50
32366;DHT22;18837;46.832;16.838;2022-08-19T14:10:49;28.80;59.40
32366;DHT22;18837;46.832;16.838;2022-08-19T14:13:17;28.90;59.50
32366;DHT22;18837;46.832;16.838;2022-08-19T14:15:44;28.90;59.30
32366;DHT22;18837;46.832;16.838;2022-08-19T14:18:10;29.00;59.40
32366;DHT22;18837;46.832;16.838;2022-08-19T14:20:36;29.00;59.10
32366;DHT22;18837;46.832;16.838;2022-08-19T14:23:03;29.10;59.10
32366;DHT22;18837;46.832;16.838;2022-08-19T14:25:31;29.10;58.90
32366;DHT22;18837;46.832;16.838;2022-08-19T14:27:57;29.10;58.80
32366;DHT22;18837;46.832;16.838;2022-08-19T14:30:34;29.10;58.70
32366;DHT22;18837;46.832;16.838;2022-08-19T14:33:02;29.10;58.60
32366;DHT22;18837;46.832;16.838;2022-08-19T14:35:29;29.10;58.60
32366;DHT22;18837;46.832;16.838;2022-08-19T14:37:55;29.10;58.60
32366;DHT22;18837;46.832;16.838;2022-08-19T14:40:26;29.20;58.70
32366;DHT22;18837;46.832;16.838;2022-08-19T14:43:03;29.20;58.70
32366;DHT22;18837;46.832;16.838;2022-08-19T14:45:35;29.20;58.40
32366;DHT22;18837;46.832;16.838;2022-08-19T14:48:03;29.20;58.50
32366;DHT22;18837;46.832;16.838;2022-08-19T14:50:29;29.20;58.60
32366;DHT22;18837;46.832;16.838;2022-08-19T14:53:04;29.20;58.40
32366;DHT22;18837;46.832;16.838;2022-08-19T14:55:31;29.20;58.10
32366;DHT22;18837;46.832;16.838;2022-08-19T14:57:58;29.20;58.30
32366;DHT22;18837;46.832;16.838;2022-08-19T15:00:23;29.30;58.40
32366;DHT22;18837;46.832;16.838;2022-08-19T15:02:55;29.30;58.50
32366;DHT22;18837;46.832;16.838;2022-08-19T15:05:21;29.30;57.90
32366;DHT22;18837;46.832;16.838;2022-08-19T15:07:46;29.30;58.20
32366;DHT22;18837;46.832;16.838;2022-08-19T15:10:14;29.30;58.10
32366;DHT22;18837;46.832;16.838;2022-08-19T15:12:41;29.40;58.00
32366;DHT22;18837;46.832;16.838;2022-08-19T15:15:13;29.40;58.00
32366;DHT22;18837;46.832;16.838;2022-08-19T15:17:40;29.40;58.40
32366;DHT22;18837;46.832;16.838;2022-08-19T15:20:07;29.40;58.20
32366;DHT22;18837;46.832;16.838;2022-08-19T15:22:33;29.50;58.20
32366;DHT22;18837;46.832;16.838;2022-08-19T15:25:01;29.40;58.00
32366;DHT22;18837;46.832;16.838;2022-08-19T15:27:27;29.50;57.90
32366;DHT22;18837;46.832;16.838;2022-08-19T15:29:52;29.50;57.90
32366;DHT22;18837;46.832;16.838;2022-08-19T15:32:18;29.50;58.00
32366;DHT22;18837;46.832;16.838;2022-08-19T15:34:44;29.50;58.00
32366;DHT22;18837;46.832;16.838;2022-08-19T15:37:14;29.50;58.10
32366;DHT22;18837;46.832;16.838;2022-08-19T15:39:40;29.50;58.20
32366;DHT22;18837;46.832;16.838;2022-08-19T15:42:05;29.50;58.00